Pigeon Falls, Wisconsin
Current Conditions -  °F | °C
As of 8:35 AM on Monday 26 Jan 2015 (Local Time) from KBCK Reporting Station
Light Snow Light Snow  
Wind Chill: 13°   Ceiling: 3200
Heat Index: 20°   Visibility: 5mi
Dew Point: 17°   Wind: 6mph
Humidity: 88%   Direction: 170°S
Pressure: 29.81"   Gusts: NA
Location:  44.43°N, 91.21°W
Report Text: KBCK 261435Z AUTO 17005KT 5SM -SN SCT026 BKN032 OVC080 M06/M08 A2981 RMK AO2 T10651082
Loading
Personal Weather Stations






























Interactive Weather Map New forecast layout! Learn more

10-Day Weather Forecast

Advertisements
Track Severe Weather on mobile